createdAt,value
2019-02-02T00:01:26.718Z,23.63
2019-02-02T00:04:08.552Z,23.07
2019-02-02T00:06:51.886Z,24.53
2019-02-02T00:09:34.045Z,23.57
2019-02-02T00:12:16.279Z,25.30
2019-02-02T00:14:58.191Z,24.50
2019-02-02T00:17:40.225Z,23.43
2019-02-02T00:20:22.137Z,24.60
2019-02-02T00:23:04.469Z,23.23
2019-02-02T00:25:46.581Z,23.90
2019-02-02T00:28:28.842Z,23.10
2019-02-02T00:31:10.738Z,25.57
2019-02-02T00:33:52.829Z,23.87
2019-02-02T00:36:35.074Z,23.53
2019-02-02T00:39:17.467Z,24.70
2019-02-02T00:41:59.775Z,24.93
2019-02-02T00:44:41.891Z,25.90
2019-02-02T00:47:24.024Z,23.60
2019-02-02T00:50:06.059Z,23.80
2019-02-02T00:52:48.157Z,24.37
2019-02-02T00:55:29.730Z,24.73
2019-02-02T00:58:12.038Z,24.27
2019-02-02T01:00:54.324Z,25.80
2019-02-02T01:03:36.326Z,25.67
2019-02-02T01:06:20.297Z,24.77
2019-02-02T01:09:04.243Z,24.17
2019-02-02T01:11:45.710Z,24.80
2019-02-02T01:14:15.990Z,25.03
2019-02-02T01:17:05.226Z,24.40
2019-02-02T01:19:47.143Z,27.40
2019-02-02T01:22:29.168Z,25.63
2019-02-02T01:24:59.434Z,26.63
2019-02-02T01:27:48.827Z,25.80
2019-02-02T01:30:19.474Z,26.50
2019-02-02T01:32:49.726Z,26.53
2019-02-02T01:35:39.458Z,27.10
2019-02-02T01:38:21.391Z,26.57
2019-02-02T01:41:03.572Z,26.27
2019-02-02T01:43:45.499Z,25.77
2019-02-02T01:46:27.489Z,25.03
2019-02-02T01:49:09.463Z,24.70
2019-02-02T01:51:51.006Z,24.77
2019-02-02T01:54:21.272Z,24.70
2019-02-02T01:57:10.505Z,24.03
2019-02-02T01:59:52.651Z,25.13
2019-02-02T02:02:35.007Z,24.30
2019-02-02T02:05:17.542Z,24.53
2019-02-02T02:07:59.814Z,25.43
2019-02-02T02:10:42.019Z,25.33
2019-02-02T02:13:24.193Z,22.37
2019-02-02T02:16:06.152Z,22.73
2019-02-02T02:18:47.774Z,23.37
2019-02-02T02:21:29.371Z,24.53
2019-02-02T02:24:11.071Z,24.60
2019-02-02T02:26:53.152Z,25.47
2019-02-02T02:29:34.834Z,26.07
2019-02-02T02:32:16.815Z,27.00
2019-02-02T02:34:58.941Z,26.50
2019-02-02T02:37:40.762Z,25.30
2019-02-02T02:40:24.577Z,25.13
2019-02-02T02:43:06.478Z,26.67
2019-02-02T02:45:48.694Z,26.43
2019-02-02T02:48:30.743Z,25.77
2019-02-02T02:51:12.899Z,26.80
2019-02-02T02:53:54.906Z,25.67
2019-02-02T02:56:36.990Z,25.53
2019-02-02T02:59:19.082Z,26.07
2019-02-02T03:02:01.073Z,28.70
2019-02-02T03:04:43.034Z,29.13
2019-02-02T03:07:25.744Z,28.73
2019-02-02T03:10:08.093Z,29.40
2019-02-02T03:12:50.487Z,31.07
2019-02-02T03:15:32.652Z,30.50
2019-02-02T03:18:14.779Z,31.17
2019-02-02T03:20:56.891Z,32.77
2019-02-02T03:23:38.283Z,31.73
2019-02-02T03:26:20.398Z,34.10
2019-02-02T03:29:02.660Z,30.00
2019-02-02T03:31:48.398Z,28.17
2019-02-02T03:34:27.874Z,31.37
2019-02-02T03:37:10.059Z,26.97
2019-02-02T03:39:52.175Z,31.17
2019-02-02T03:42:33.995Z,32.23
2019-02-02T03:45:15.947Z,32.10
2019-02-02T03:47:58.049Z,32.43
2019-02-02T03:50:39.639Z,33.57
2019-02-02T03:53:23.552Z,33.17
2019-02-02T03:56:08.379Z,33.43
2019-02-02T03:58:49.946Z,29.47
2019-02-02T04:01:31.815Z,32.17
2019-02-02T04:04:13.874Z,31.33
2019-02-02T04:06:55.940Z,29.40
2019-02-02T04:09:37.680Z,32.17
2019-02-02T04:12:19.735Z,31.23
2019-02-02T04:15:01.614Z,33.00
2019-02-02T04:17:43.287Z,34.37
2019-02-02T04:20:25.228Z,34.83
2019-02-02T04:23:06.975Z,33.10
2019-02-02T04:25:49.070Z,31.97
2019-02-02T04:28:31.591Z,35.00
2019-02-02T04:31:13.606Z,34.70
2019-02-02T04:33:55.534Z,36.67
2019-02-02T04:36:37.269Z,36.53
2019-02-02T04:39:19.408Z,39.43
2019-02-02T04:42:01.698Z,39.43
2019-02-02T04:44:43.748Z,42.40
2019-02-02T04:47:25.772Z,39.63
2019-02-02T04:50:09.026Z,40.67
2019-02-02T04:52:50.998Z,38.57
2019-02-02T04:55:33.742Z,35.83
2019-02-02T04:58:16.137Z,37.87
2019-02-02T05:00:58.282Z,38.20
2019-02-02T05:03:40.279Z,36.40
2019-02-02T05:06:22.350Z,44.10
2019-02-02T05:09:04.954Z,37.80
2019-02-02T05:11:46.697Z,37.83
2019-02-02T05:14:28.634Z,36.97
2019-02-02T05:17:10.795Z,33.30
2019-02-02T05:19:53.222Z,36.43
2019-02-02T05:22:35.155Z,38.00
2019-02-02T05:25:17.250Z,36.60
2019-02-02T05:27:59.345Z,37.23
2019-02-02T05:30:41.758Z,36.33
2019-02-02T05:33:24.026Z,43.43
2019-02-02T05:36:06.187Z,36.47
2019-02-02T05:38:48.122Z,38.60
2019-02-02T05:41:31.383Z,40.30
2019-02-02T05:44:15.377Z,36.00
2019-02-02T05:46:57.291Z,36.63
2019-02-02T05:49:39.693Z,36.40
2019-02-02T05:52:21.933Z,37.93
2019-02-02T05:55:03.786Z,34.87
2019-02-02T05:57:45.522Z,35.20
2019-02-02T06:00:46.427Z,35.07
2019-02-02T06:03:28.267Z,35.13
2019-02-02T06:06:10.138Z,35.10
2019-02-02T06:08:52.470Z,32.83
2019-02-02T06:11:34.258Z,33.70
2019-02-02T06:14:16.263Z,33.13
2019-02-02T06:16:46.596Z,34.53
2019-02-02T06:19:35.885Z,34.90
2019-02-02T06:22:17.369Z,35.23
2019-02-02T06:24:48.473Z,33.10
2019-02-02T06:27:30.596Z,31.70
2019-02-02T06:30:12.618Z,32.53
2019-02-02T06:32:54.930Z,36.10
2019-02-02T06:35:37.038Z,36.70
2019-02-02T06:38:19.192Z,33.13
2019-02-02T06:40:51.074Z,34.43
2019-02-02T06:43:40.455Z,36.77
2019-02-02T06:46:22.659Z,33.63
2019-02-02T06:49:04.330Z,36.60
2019-02-02T06:51:46.264Z,34.60
2019-02-02T06:54:33.285Z,36.20
2019-02-02T06:57:12.892Z,33.53
2019-02-02T06:59:54.907Z,32.07
2019-02-02T07:02:37.303Z,35.03
2019-02-02T07:05:19.694Z,34.43
2019-02-02T07:07:50.132Z,33.13
2019-02-02T07:10:39.411Z,31.00
2019-02-02T07:13:21.358Z,33.03
2019-02-02T07:15:51.773Z,32.50
2019-02-02T07:18:33.874Z,34.57
2019-02-02T07:21:15.654Z,33.90
2019-02-02T07:23:57.764Z,34.17
2019-02-02T07:26:28.370Z,34.53
2019-02-02T07:29:17.774Z,35.10
2019-02-02T07:31:59.770Z,33.30
2019-02-02T07:34:42.031Z,34.93
2019-02-02T07:37:24.051Z,36.23
2019-02-02T07:39:54.339Z,34.30
2019-02-02T07:42:43.682Z,32.63
2019-02-02T07:45:25.583Z,31.83
2019-02-02T07:47:57.087Z,33.67
2019-02-02T07:50:38.850Z,32.50
2019-02-02T07:53:20.644Z,32.67
2019-02-02T07:56:04.610Z,32.53
2019-02-02T07:58:46.566Z,31.43
2019-02-02T08:01:28.600Z,32.37
2019-02-02T08:03:58.954Z,31.47
2019-02-02T08:06:41.346Z,32.37
2019-02-02T08:09:23.308Z,31.17
2019-02-02T08:12:05.343Z,31.07
2019-02-02T08:14:47.338Z,33.40
2019-02-02T08:17:32.234Z,32.03
2019-02-02T08:20:13.144Z,33.20
2019-02-02T08:22:56.638Z,32.43
2019-02-02T08:25:38.987Z,31.67
2019-02-02T08:28:21.818Z,30.70
2019-02-02T08:31:04.245Z,32.10
2019-02-02T08:33:46.506Z,31.17
2019-02-02T08:36:30.066Z,32.57
2019-02-02T08:39:12.486Z,31.20
2019-02-02T08:41:54.447Z,32.43
2019-02-02T08:44:36.114Z,30.53
2019-02-02T08:47:18.502Z,29.60
2019-02-02T08:50:00.780Z,29.57
2019-02-02T08:52:43.202Z,29.17
2019-02-02T08:55:26.246Z,28.60
2019-02-02T08:58:08.550Z,28.77
2019-02-02T09:00:50.844Z,29.60
2019-02-02T09:03:32.925Z,30.80
2019-02-02T09:06:15.204Z,28.60
2019-02-02T09:08:57.040Z,31.60
2019-02-02T09:11:38.984Z,31.03
2019-02-02T09:14:20.854Z,30.10
2019-02-02T09:17:03.161Z,30.50
2019-02-02T09:19:45.016Z,29.47
2019-02-02T09:22:26.920Z,29.17
2019-02-02T09:25:08.818Z,30.13
2019-02-02T09:27:51.143Z,31.70
2019-02-02T09:30:33.286Z,29.47
2019-02-02T09:33:14.984Z,30.97
2019-02-02T09:35:56.345Z,31.33
2019-02-02T09:38:38.710Z,29.40
2019-02-02T09:41:20.479Z,28.50
2019-02-02T09:44:03.420Z,27.70
2019-02-02T09:46:46.998Z,27.97
2019-02-02T09:49:29.203Z,28.17
2019-02-02T09:52:11.311Z,28.87
2019-02-02T09:54:53.446Z,27.10
2019-02-02T09:57:36.891Z,28.57
2019-02-02T10:00:19.476Z,25.93
2019-02-02T10:03:01.556Z,25.60
2019-02-02T10:05:43.864Z,25.80
2019-02-02T10:08:28.152Z,27.30
2019-02-02T10:11:09.354Z,26.40
2019-02-02T10:13:52.228Z,26.63
2019-02-02T10:16:22.698Z,27.00
2019-02-02T10:19:05.344Z,26.93
2019-02-02T10:21:49.713Z,26.40
2019-02-02T10:24:30.732Z,27.53
2019-02-02T10:27:12.853Z,30.77
2019-02-02T10:29:54.818Z,29.13
2019-02-02T10:32:38.551Z,30.07
2019-02-02T10:35:09.460Z,31.57
2019-02-02T10:37:58.694Z,30.73
2019-02-02T10:40:40.218Z,32.13
2019-02-02T10:43:22.325Z,33.20
2019-02-02T10:45:52.732Z,32.17
2019-02-02T10:48:41.960Z,32.97
2019-02-02T10:51:12.679Z,33.57
2019-02-02T10:54:01.942Z,34.90
2019-02-02T10:56:44.007Z,36.17
2019-02-02T10:59:14.346Z,34.83
2019-02-02T11:01:51.140Z,37.00
2019-02-02T11:04:49.678Z,35.70
2019-02-02T11:07:31.700Z,36.23
2019-02-02T11:10:14.332Z,35.20
2019-02-02T11:12:56.886Z,36.77
2019-02-02T11:15:39.491Z,37.23
2019-02-02T11:18:09.783Z,34.57
2019-02-02T11:20:53.537Z,37.63
2019-02-02T11:23:36.154Z,38.17
2019-02-02T11:29:20.773Z,38.70
2019-02-02T11:32:03.279Z,39.33
2019-02-02T11:34:45.720Z,38.30
2019-02-02T11:37:27.934Z,39.03
2019-02-02T11:40:10.442Z,39.73
2019-02-02T11:42:53.845Z,37.00
2019-02-02T11:45:35.741Z,35.17
2019-02-02T11:48:18.061Z,35.30
2019-02-02T11:50:59.886Z,34.10
2019-02-02T11:53:42.050Z,35.20
2019-02-02T11:56:24.161Z,33.70
2019-02-02T11:59:06.178Z,34.73
2019-02-02T12:01:48.088Z,33.30
2019-02-02T12:04:30.126Z,35.20
2019-02-02T12:07:12.031Z,35.83
2019-02-02T12:09:53.624Z,36.10
2019-02-02T12:12:24.114Z,35.53
2019-02-02T12:15:05.815Z,36.97
2019-02-02T12:20:23.507Z,32.63
2019-02-02T12:23:05.069Z,32.90
2019-02-02T12:25:46.786Z,32.90
2019-02-02T12:28:17.230Z,30.67
2019-02-02T12:31:06.683Z,31.20
2019-02-02T12:33:50.431Z,30.37
2019-02-02T12:36:32.421Z,32.47
2019-02-02T12:39:15.510Z,35.27
2019-02-02T12:41:57.615Z,32.23
2019-02-02T12:44:28.039Z,32.60
2019-02-02T12:50:20.082Z,33.37
2019-02-02T12:52:50.438Z,32.10
2019-02-02T12:55:20.822Z,33.37
2019-02-02T12:58:10.543Z,36.07
2019-02-02T13:00:52.890Z,33.53
2019-02-02T13:03:23.567Z,34.17
2019-02-02T13:06:12.922Z,37.70
2019-02-02T13:08:55.750Z,38.40
2019-02-02T13:11:37.487Z,42.07
2019-02-02T13:14:09.443Z,41.60
2019-02-02T13:16:51.593Z,40.93
2019-02-02T13:19:33.857Z,41.63
2019-02-02T13:22:15.656Z,41.27
2019-02-02T13:24:57.181Z,40.97
2019-02-02T13:27:27.706Z,41.57
2019-02-02T13:30:10.090Z,41.70
2019-02-02T13:32:52.424Z,40.87
2019-02-02T13:35:34.541Z,41.00
2019-02-02T13:38:16.516Z,40.33
2019-02-02T13:40:58.626Z,38.10
2019-02-02T13:43:40.701Z,35.93
2019-02-02T13:46:22.462Z,35.60
2019-02-02T13:49:05.677Z,34.43
2019-02-02T13:51:36.311Z,28.20
2019-02-02T13:54:25.641Z,27.63
2019-02-02T14:00:06.390Z,26.83
2019-02-02T14:02:48.475Z,25.40
2019-02-02T14:05:30.203Z,25.77
2019-02-02T14:08:12.557Z,26.47
2019-02-02T14:14:05.856Z,24.07
2019-02-02T14:16:50.227Z,25.67
2019-02-02T14:19:32.288Z,25.37
2019-02-02T14:22:15.833Z,23.97
2019-02-02T14:24:57.256Z,24.50
2019-02-02T14:27:27.865Z,25.57
2019-02-02T14:30:18.172Z,24.03
2019-02-02T14:32:48.596Z,23.50
2019-02-02T14:35:30.606Z,24.87
2019-02-02T14:38:13.038Z,24.67
2019-02-02T14:40:43.437Z,25.03
2019-02-02T14:43:25.237Z,24.80
2019-02-02T14:46:07.165Z,23.30
2019-02-02T14:48:49.155Z,23.20
2019-02-02T14:51:31.268Z,24.90
2019-02-02T14:54:13.513Z,24.60
2019-02-02T14:56:55.668Z,26.77
2019-02-02T14:59:37.127Z,27.23
2019-02-02T15:02:19.309Z,28.73
2019-02-02T15:05:01.148Z,31.73
2019-02-02T15:07:44.328Z,34.67
2019-02-02T15:10:26.390Z,33.43
2019-02-02T15:13:08.651Z,35.50
2019-02-02T15:15:50.611Z,36.03
2019-02-02T15:18:32.722Z,38.60
2019-02-02T15:21:14.531Z,36.27
2019-02-02T15:23:45.541Z,39.77
2019-02-02T15:26:36.035Z,38.80
2019-02-02T15:29:17.656Z,39.87
2019-02-02T15:31:47.987Z,39.50
2019-02-02T15:34:30.691Z,38.43
2019-02-02T15:37:13.157Z,36.47
2019-02-02T15:39:55.096Z,37.87
2019-02-02T15:42:37.183Z,37.10
2019-02-02T15:45:18.857Z,39.47
2019-02-02T15:47:49.612Z,39.27
2019-02-02T15:50:31.178Z,39.57
2019-02-02T15:53:13.222Z,40.73
2019-02-02T15:55:55.098Z,40.67
2019-02-02T15:58:37.390Z,41.07
2019-02-02T16:01:19.615Z,41.63
2019-02-02T16:03:50.139Z,43.73
2019-02-02T16:06:31.879Z,42.50
2019-02-02T16:09:14.379Z,43.37
2019-02-02T16:11:56.487Z,45.93
2019-02-02T16:14:39.042Z,46.13
2019-02-02T16:17:21.221Z,47.60
2019-02-02T16:19:51.664Z,49.27
2019-02-02T16:22:34.161Z,48.43
2019-02-02T16:25:16.191Z,48.90
2019-02-02T16:27:58.199Z,50.27
2019-02-02T16:30:41.757Z,50.33
2019-02-02T16:33:23.243Z,51.33
2019-02-02T16:35:54.217Z,53.03
2019-02-02T16:41:17.647Z,55.87
2019-02-02T16:43:59.792Z,53.73
2019-02-02T16:46:41.580Z,53.73
2019-02-02T16:49:23.656Z,52.97
2019-02-02T16:52:06.495Z,54.33
2019-02-02T16:54:48.466Z,51.73
2019-02-02T16:57:30.580Z,54.10
2019-02-02T17:00:12.714Z,52.70
2019-02-02T17:02:56.028Z,51.57
2019-02-02T17:05:38.229Z,51.37
2019-02-02T17:08:20.179Z,51.93
2019-02-02T17:11:02.341Z,51.43
2019-02-02T17:13:43.995Z,50.67
2019-02-02T17:16:25.997Z,50.30
2019-02-02T17:19:08.264Z,49.63
2019-02-02T17:21:50.462Z,47.57
2019-02-02T17:24:32.797Z,47.90
2019-02-02T17:27:03.160Z,45.37
2019-02-02T17:29:45.360Z,43.00
2019-02-02T17:32:16.078Z,41.30
2019-02-02T17:35:06.318Z,38.53
2019-02-02T17:37:47.829Z,38.23
2019-02-02T17:40:29.799Z,37.80
2019-02-02T17:43:11.798Z,37.77
2019-02-02T17:45:53.593Z,39.33
2019-02-02T17:51:06.272Z,39.43
2019-02-02T17:54:07.427Z,40.37
2019-02-02T17:56:49.520Z,38.67
2019-02-02T17:59:31.609Z,38.67
2019-02-02T18:02:13.975Z,39.23
2019-02-02T18:04:55.977Z,39.37
2019-02-02T18:07:37.993Z,39.83
2019-02-02T18:10:20.357Z,39.40
2019-02-02T18:13:02.160Z,39.77
2019-02-02T18:15:44.131Z,40.70
2019-02-02T18:18:28.025Z,39.80
2019-02-02T18:21:10.339Z,42.30
2019-02-02T18:23:52.146Z,43.70
2019-02-02T18:26:34.186Z,43.47
2019-02-02T18:29:16.102Z,53.52
2019-02-02T18:31:58.195Z,46.30
2019-02-02T18:34:50.966Z,47.43
2019-02-02T18:37:12.410Z,47.63
2019-02-02T18:40:01.719Z,48.93
2019-02-02T18:42:43.598Z,49.37
2019-02-02T18:45:25.795Z,48.80
2019-02-02T18:48:08.418Z,51.40
2019-02-02T18:50:50.750Z,49.73
2019-02-02T18:53:33.046Z,50.63
2019-02-02T18:56:15.149Z,53.10
2019-02-02T18:58:45.431Z,53.47
2019-02-02T19:01:15.793Z,57.43
2019-02-02T19:03:58.223Z,55.80
2019-02-02T19:06:40.461Z,54.30
2019-02-02T19:09:12.676Z,54.07
2019-02-02T19:12:02.100Z,55.77
2019-02-02T19:14:44.446Z,54.87
2019-02-02T19:17:16.062Z,56.47
2019-02-02T19:20:06.222Z,55.20
2019-02-02T19:22:47.994Z,56.23
2019-02-02T19:25:30.419Z,54.87
2019-02-02T19:28:12.762Z,55.67
2019-02-02T19:30:54.386Z,57.67
2019-02-02T19:33:36.699Z,57.83
2019-02-02T19:36:19.020Z,58.40
2019-02-02T19:39:01.385Z,58.80
2019-02-02T19:41:43.032Z,56.23
2019-02-02T19:44:25.223Z,57.97
2019-02-02T19:47:15.842Z,57.23
2019-02-02T19:49:51.119Z,56.57
2019-02-02T19:52:21.426Z,57.20
2019-02-02T19:54:51.971Z,55.53
2019-02-02T19:57:41.326Z,57.23
2019-02-02T20:00:31.495Z,62.97
2019-02-02T20:03:03.181Z,57.00
2019-02-02T20:05:45.537Z,56.80
2019-02-02T20:08:28.139Z,54.17
2019-02-02T20:11:09.982Z,55.40
2019-02-02T20:13:51.844Z,54.57
2019-02-02T20:16:22.376Z,52.00
2019-02-02T20:19:11.908Z,52.27
2019-02-02T20:21:54.050Z,49.20
2019-02-02T20:24:24.425Z,50.67
2019-02-02T20:27:06.837Z,50.67
2019-02-02T20:29:48.783Z,48.90
2019-02-02T20:32:30.698Z,50.83
2019-02-02T20:35:12.707Z,48.93
2019-02-02T20:37:54.924Z,50.23
2019-02-02T20:40:36.870Z,49.93
2019-02-02T20:43:18.922Z,48.87
2019-02-02T20:46:00.475Z,55.07
2019-02-02T20:48:42.531Z,49.47
2019-02-02T20:51:24.628Z,51.37
2019-02-02T20:54:06.642Z,49.80
2019-02-02T20:56:48.735Z,53.20
2019-02-02T20:59:30.467Z,52.00
2019-02-02T21:02:12.767Z,53.43
2019-02-02T21:04:54.401Z,52.43
2019-02-02T21:07:36.466Z,52.30
2019-02-02T21:10:07.857Z,55.67
2019-02-02T21:12:50.095Z,54.33
2019-02-02T21:15:31.947Z,55.83
2019-02-02T21:18:13.975Z,56.13
2019-02-02T21:20:44.351Z,56.17
2019-02-02T21:23:26.731Z,58.37
2019-02-02T21:26:08.546Z,58.73
2019-02-02T21:28:51.439Z,58.57
2019-02-02T21:31:33.435Z,60.33
2019-02-02T21:34:16.765Z,60.50
2019-02-02T21:36:58.912Z,61.73
2019-02-02T21:39:30.338Z,61.93
2019-02-02T21:42:19.663Z,58.30
2019-02-02T21:45:01.961Z,59.77
2019-02-02T21:47:45.013Z,58.83
2019-02-02T21:50:27.910Z,58.10
2019-02-02T21:53:10.361Z,59.70
2019-02-02T21:55:52.251Z,60.17
2019-02-02T21:58:34.422Z,61.07
2019-02-02T22:01:23.797Z,59.33
2019-02-02T22:04:00.903Z,62.50
2019-02-02T22:06:42.879Z,60.40
2019-02-02T22:09:24.707Z,60.30
2019-02-02T22:12:08.687Z,58.17
2019-02-02T22:14:50.658Z,59.57
2019-02-02T22:17:32.584Z,61.20
2019-02-02T22:20:14.844Z,63.90
2019-02-02T22:22:57.114Z,60.47
2019-02-02T22:25:39.325Z,60.63
2019-02-02T22:28:21.435Z,63.00
2019-02-02T22:30:51.804Z,64.50
2019-02-02T22:33:41.153Z,64.63
2019-02-02T22:36:27.541Z,65.13
2019-02-02T22:39:07.408Z,63.33
2019-02-02T22:41:39.007Z,64.10
2019-02-02T22:44:28.337Z,62.60
2019-02-02T22:47:10.682Z,63.00
2019-02-02T22:49:52.980Z,62.03
2019-02-02T22:52:35.036Z,60.60
2019-02-02T22:55:17.297Z,59.90
2019-02-02T22:57:59.567Z,58.90
2019-02-02T23:01:00.508Z,61.57
2019-02-02T23:03:42.025Z,59.03
2019-02-02T23:06:24.447Z,56.20
2019-02-02T23:09:07.688Z,58.53
2019-02-02T23:11:50.871Z,58.63
2019-02-02T23:14:33.219Z,57.10
2019-02-02T23:17:14.949Z,56.57
2019-02-02T23:19:56.861Z,53.50
2019-02-02T23:22:39.671Z,54.00
2019-02-02T23:25:21.294Z,52.27
2019-02-02T23:28:03.641Z,50.93
2019-02-02T23:30:45.510Z,51.37
2019-02-02T23:33:27.388Z,49.50
2019-02-02T23:36:10.237Z,50.27
2019-02-02T23:38:52.679Z,49.23
2019-02-02T23:41:34.939Z,48.80
2019-02-02T23:44:17.447Z,49.33
2019-02-02T23:46:47.941Z,51.53
2019-02-02T23:49:38.967Z,53.80
2019-02-02T23:52:21.182Z,56.50
2019-02-02T23:55:03.601Z,56.67
2019-02-02T23:57:45.574Z,54.70
